Time;durP1;ratioP1;P1;durP2;ratioP2;P2;SDS_P1;SDS_P2;PMS_P1;PMS_P2;Temp;Humidity;BMP_temperature;BMP_pressure;BME280_temperature;BME280_humidity;BME280_pressure;Samples;Min_cycle;Max_cycle;Signal;HPM_P1;HPM_P2
2022/04/20 00:00:19;;;;;;;83.35;41.55;;;;;;;2.36;64.55;100283.14;2117555;83;28227;-62
2022/04/20 00:03:31;;;;;;;79.62;40.85;;;;;;;2.40;64.52;100285.70;2117731;83;30159;-62
2022/04/20 00:06:40;;;;;;;85.53;41.13;;;;;;;2.46;64.66;100286.08;2118230;83;29360;-61
2022/04/20 00:09:52;;;;;;;85.22;41.80;;;;;;;2.52;64.73;100288.59;2118342;83;27935;-62
2022/04/20 00:12:58;;;;;;;89.87;44.55;;;;;;;2.58;64.85;100295.13;2118001;83;28673;-63
2022/04/20 00:16:05;;;;;;;95.65;47.75;;;;;;;2.65;64.80;100289.73;2118270;83;31006;-62
2022/04/20 00:19:16;;;;;;;105.65;52.30;;;;;;;2.70;64.75;100287.44;2118154;83;33619;-62
2022/04/20 00:22:22;;;;;;;112.55;53.90;;;;;;;2.77;64.74;100289.52;2117880;83;27960;-61
2022/04/20 00:25:30;;;;;;;103.12;53.48;;;;;;;2.82;64.79;100286.31;2117657;83;27844;-62
2022/04/20 00:28:40;;;;;;;102.70;54.23;;;;;;;2.87;64.82;100280.50;2117923;83;27940;-62
2022/04/20 00:31:44;;;;;;;102.87;54.33;;;;;;;2.93;64.71;100287.45;2118225;83;31086;-62
2022/04/20 00:34:48;;;;;;;111.47;57.33;;;;;;;2.97;64.67;100284.32;2118425;83;33015;-62
2022/04/20 00:37:57;;;;;;;106.63;54.15;;;;;;;3.00;64.63;100285.13;2118022;83;29412;-61
2022/04/20 00:41:02;;;;;;;94.58;48.98;;;;;;;3.06;64.68;100284.59;2118274;83;27944;-61
2022/04/20 00:44:07;;;;;;;87.75;47.73;;;;;;;3.06;64.49;100288.10;2116259;83;28642;-62
2022/04/20 00:47:15;;;;;;;84.05;45.00;;;;;;;3.09;64.49;100281.87;2116866;83;31556;-62
2022/04/20 00:50:23;;;;;;;82.12;43.48;;;;;;;3.11;64.36;100277.42;2118037;83;32962;-62
2022/04/20 00:53:28;;;;;;;79.62;41.45;;;;;;;3.11;64.26;100274.77;2118240;83;29347;-62
2022/04/20 00:56:32;;;;;;;79.58;42.43;;;;;;;3.13;64.26;100274.30;2118234;83;27867;-62
2022/04/20 00:59:44;;;;;;;74.97;40.10;;;;;;;3.14;64.31;100270.75;2118317;83;28650;-63
2022/04/20 01:02:47;;;;;;;73.05;38.92;;;;;;;3.14;64.26;100271.64;2118198;83;31093;-62
2022/04/20 01:05:57;;;;;;;63.65;36.23;;;;;;;3.14;64.20;100266.78;2118105;83;32986;-62
2022/04/20 01:09:07;;;;;;;65.40;36.05;;;;;;;3.14;64.17;100265.02;2117913;83;29376;-62
2022/04/20 01:12:16;;;;;;;63.80;35.35;;;;;;;3.12;64.21;100268.58;2118416;83;27931;-62
2022/04/20 01:15:24;;;;;;;62.25;36.08;;;;;;;3.12;64.27;100272.12;2117772;83;29983;-62
2022/04/20 01:18:33;;;;;;;56.53;32.95;;;;;;;3.11;64.22;100262.43;2118411;83;31025;-62
2022/04/20 01:21:40;;;;;;;55.38;32.90;;;;;;;3.11;64.24;100254.49;2118204;83;32964;-63
2022/04/20 01:24:45;;;;;;;60.55;32.55;;;;;;;3.11;64.26;100261.55;2118040;83;29316;-63
2022/04/20 01:27:50;;;;;;;58.45;33.88;;;;;;;3.12;64.33;100261.97;2118185;83;27944;-63
2022/04/20 01:30:54;;;;;;;55.30;31.05;;;;;;;3.12;64.31;100261.97;2118277;83;30374;-62
2022/04/20 01:33:59;;;;;;;49.77;31.95;;;;;;;3.11;64.32;100255.81;2118704;83;31028;-63
2022/04/20 01:37:06;;;;;;;55.90;31.00;;;;;;;3.09;64.29;100244.37;2118173;83;33101;-63
2022/04/20 01:40:12;;;;;;;55.45;32.60;;;;;;;3.09;64.30;100252.75;2118020;83;29363;-63
2022/04/20 01:43:23;;;;;;;51.23;30.82;;;;;;;3.07;64.43;100242.21;2118166;83;27932;-62
2022/04/20 01:46:31;;;;;;;52.75;29.23;;;;;;;3.10;64.54;100243.48;2117645;83;29138;-63
2022/04/20 01:49:35;;;;;;;54.03;30.73;;;;;;;3.12;64.60;100244.33;2118325;83;31145;-63
2022/04/20 01:52:40;;;;;;;51.95;29.37;;;;;;;3.14;64.62;100247.82;2115291;83;35779;-63
2022/04/20 01:55:49;;;;;;;49.03;30.92;;;;;;;3.17;64.74;100242.44;2115374;83;29415;-63
2022/04/20 01:58:57;;;;;;;49.20;29.55;;;;;;;3.19;64.80;100239.31;2114991;84;28000;-63
2022/04/20 02:05:30;;;;;;;46.28;28.87;;;;;;;3.23;64.68;100244.08;2114718;83;28026;-63
2022/04/20 02:08:36;;;;;;;51.10;30.72;;;;;;;3.26;64.85;100240.52;2114896;84;33023;-63
2022/04/20 02:11:44;;;;;;;50.60;29.48;;;;;;;3.28;64.75;100244.02;2115189;84;29335;-63
2022/04/20 02:14:48;;;;;;;52.98;31.37;;;;;;;3.29;64.74;100247.09;2115329;83;27902;-63
2022/04/20 02:17:52;;;;;;;51.73;30.45;;;;;;;3.30;64.68;100248.83;2115135;83;28655;-63
2022/04/20 02:21:01;;;;;;;52.30;29.75;;;;;;;3.33;64.77;100249.63;2101830;84;30871;-63
2022/04/20 02:24:06;;;;;;;57.95;31.17;;;;;;;3.36;64.82;100246.50;2101684;84;33062;-63
2022/04/20 02:27:17;;;;;;;52.70;31.68;;;;;;;3.39;64.73;100242.47;2101743;84;29337;-62
2022/04/20 02:30:25;;;;;;;50.20;28.83;;;;;;;3.42;64.70;100246.36;2101703;84;27904;-62
2022/04/20 02:33:30;;;;;;;47.13;28.73;;;;;;;3.44;64.66;100244.55;2101368;84;28644;-63
2022/04/20 02:36:35;;;;;;;51.15;30.88;;;;;;;3.46;64.78;100246.28;2101678;84;35616;-63
2022/04/20 02:39:40;;;;;;;47.15;29.63;;;;;;;3.50;64.78;100240.45;2101765;84;33013;-63
2022/04/20 02:42:50;;;;;;;50.33;30.62;;;;;;;3.52;64.69;100233.36;2101759;84;29328;-62
2022/04/20 02:46:01;;;;;;;50.63;31.35;;;;;;;3.54;64.65;100242.58;2101764;84;27954;-62
2022/04/20 02:49:12;;;;;;;47.85;29.77;;;;;;;3.55;64.55;100235.05;2101917;84;28641;-63
2022/04/20 02:52:22;;;;;;;48.30;30.90;;;;;;;3.53;64.51;100234.21;2110154;84;31469;-64
2022/04/20 02:55:30;;;;;;;52.38;31.42;;;;;;;3.54;64.54;100241.25;2114827;83;33160;-62
2022/04/20 02:58:36;;;;;;;48.50;30.35;;;;;;;3.55;64.65;100238.59;2114975;83;29321;-62
2022/04/20 03:01:40;;;;;;;55.60;32.35;;;;;;;3.56;64.65;100236.33;2115514;83;27899;-62
2022/04/20 03:04:45;;;;;;;49.90;29.85;;;;;;;3.56;64.73;100224.41;2115523;83;28639;-62
2022/04/20 03:07:49;;;;;;;53.75;31.15;;;;;;;3.58;64.70;100226.58;2115446;83;31059;-62
2022/04/20 03:10:56;;;;;;;50.50;30.72;;;;;;;3.59;64.67;100227.00;2115392;83;32954;-62
2022/04/20 03:14:00;;;;;;;54.95;31.33;;;;;;;3.61;64.59;100224.34;2115429;83;29488;-62
2022/04/20 03:17:05;;;;;;;50.33;30.08;;;;;;;3.59;64.65;100229.65;2115125;84;28019;-62
2022/04/20 03:20:09;;;;;;;51.40;30.85;;;;;;;3.59;64.67;100230.98;2115489;83;28657;-62
2022/04/20 03:23:14;;;;;;;54.93;32.20;;;;;;;3.61;64.67;100238.91;2115516;83;31018;-63
2022/04/20 03:26:18;;;;;;;55.03;30.72;;;;;;;3.63;64.69;100239.28;2115271;83;32971;-64
2022/04/20 03:29:28;;;;;;;49.93;30.07;;;;;;;3.64;64.66;100239.70;2114911;83;29333;-68
2022/04/20 03:32:34;;;;;;;53.02;30.55;;;;;;;3.65;64.66;100243.20;2114155;83;27879;-68
2022/04/20 03:35:39;;;;;;;50.43;29.82;;;;;;;3.67;64.73;100237.42;2095159;83;28826;-64
2022/04/20 03:38:44;;;;;;;48.05;29.35;;;;;;;3.69;64.79;100236.95;2115512;83;35551;-68
2022/04/20 03:41:49;;;;;;;50.65;29.75;;;;;;;3.71;64.70;100234.28;2115520;83;33035;-68
2022/04/20 03:44:53;;;;;;;55.70;30.90;;;;;;;3.71;64.71;100233.81;2115463;83;29334;-63
2022/04/20 03:47:58;;;;;;;53.83;29.23;;;;;;;3.73;64.67;100229.36;2115262;84;27885;-67
2022/04/20 03:51:03;;;;;;;48.42;27.65;;;;;;;3.75;64.73;100224.89;2115584;83;28716;-67
2022/04/20 03:54:07;;;;;;;32.93;21.33;;;;;;;3.75;64.71;100220.92;2118362;83;35514;-67
2022/04/20 03:57:12;;;;;;;44.85;28.32;;;;;;;3.78;64.83;100214.23;2118277;83;33055;-67
2022/04/20 04:00:16;;;;;;;49.23;28.15;;;;;;;3.80;64.71;100215.51;2118453;83;29333;-67
2022/04/20 04:03:20;;;;;;;49.65;28.42;;;;;;;3.83;64.70;100217.20;2118428;83;27928;-70
2022/04/20 04:06:27;;;;;;;52.62;27.22;;;;;;;3.87;64.76;100222.42;2118453;83;28651;-68
2022/04/20 04:09:32;;;;;;;40.63;27.82;;;;;;;3.89;64.67;100219.25;2118146;83;31017;-68
2022/04/20 04:12:37;;;;;;;46.77;28.42;;;;;;;3.91;64.56;100222.75;2118250;83;32980;-67
2022/04/20 04:15:43;;;;;;;43.10;27.13;;;;;;;3.94;64.59;100222.68;2118299;83;29733;-67
2022/04/20 04:18:47;;;;;;;50.10;28.55;;;;;;;3.97;64.66;100226.17;2118339;83;27875;-67
2022/04/20 04:21:56;;;;;;;42.05;26.48;;;;;;;3.99;64.53;100221.70;2118254;83;28638;-64
2022/04/20 04:25:06;;;;;;;46.88;28.23;;;;;;;4.03;64.56;100222.06;2117895;83;27921;-67
2022/04/20 04:28:12;;;;;;;46.28;27.50;;;;;;;4.06;64.59;100224.61;2118166;83;32972;-66
2022/04/20 04:31:16;;;;;;;44.35;26.93;;;;;;;4.08;64.58;100222.36;2118198;83;29330;-68
2022/04/20 04:34:21;;;;;;;42.03;26.35;;;;;;;4.10;64.51;100223.20;2118300;83;27861;-66
2022/04/20 04:37:27;;;;;;;40.63;26.12;;;;;;;4.16;64.47;100216.87;2118210;83;28635;-67
2022/04/20 04:40:31;;;;;;;39.00;25.88;;;;;;;4.18;64.33;100221.69;2118292;83;31014;-68
2022/04/20 04:43:36;;;;;;;48.10;26.90;;;;;;;4.21;64.39;100222.95;2118266;83;33030;-68
2022/04/20 04:50:05;;;;;;;46.15;27.50;;;;;;;4.29;64.43;100216.13;2118216;83;27964;-68
2022/04/20 04:53:11;;;;;;;40.78;26.17;;;;;;;4.34;64.41;100220.83;2118059;83;28656;-67
2022/04/20 04:56:16;;;;;;;;;;;;;;;4.38;64.22;100220.33;2120734;83;32088;-64
2022/04/20 04:59:27;;;;;;;47.75;27.10;;;;;;;4.42;64.24;100214.00;2118251;83;32930;-64
2022/04/20 05:02:34;;;;;;;42.58;26.45;;;;;;;4.45;64.09;100211.75;2118086;83;29334;-61
2022/04/20 05:05:38;;;;;;;43.33;25.45;;;;;;;4.49;64.23;100210.30;2118163;83;27924;-65
2022/04/20 05:08:44;;;;;;;36.63;23.52;;;;;;;4.56;64.13;100213.66;2118069;83;28640;-64
2022/04/20 05:11:49;;;;;;;39.53;24.98;;;;;;;4.61;64.06;100209.55;2118082;83;31024;-64
2022/04/20 05:14:55;;;;;;;42.60;24.67;;;;;;;4.67;64.07;100204.09;2118195;83;32969;-64
2022/04/20 05:18:00;;;;;;;36.90;22.87;;;;;;;4.71;63.88;100199.13;2117860;83;29397;-63
2022/04/20 05:21:04;;;;;;;43.60;25.27;;;;;;;4.78;63.94;100195.84;2118181;83;27876;-63
2022/04/20 05:24:14;;;;;;;40.23;23.77;;;;;;;4.81;63.76;100194.41;2118118;83;28645;-65
2022/04/20 05:27:18;;;;;;;38.35;23.20;;;;;;;4.85;63.70;100196.08;2118105;83;31076;-64
2022/04/20 05:30:23;;;;;;;39.00;23.70;;;;;;;4.89;63.66;100196.41;2118229;83;32949;-65
2022/04/20 05:33:29;;;;;;;;;;;;;;;4.92;63.66;100196.33;2120740;83;29337;-64
2022/04/20 05:43:26;;;;;;;41.23;23.55;;;;;;;5.06;63.51;100187.09;2117128;83;31086;-64
2022/04/20 05:46:33;;;;;;;34.78;23.47;;;;;;;5.15;63.49;100181.51;2118197;83;35580;-65
2022/04/20 05:49:42;;;;;;;35.48;23.75;;;;;;;5.21;63.38;100180.02;2118200;83;29329;-65
2022/04/20 05:52:50;;;;;;;39.95;23.07;;;;;;;5.29;63.34;100176.69;2116794;83;27806;-65
2022/04/20 05:55:59;;;;;;;33.70;22.62;;;;;;;5.38;63.24;100175.98;2115416;83;28771;-65
2022/04/20 05:59:04;;;;;;;31.45;20.80;;;;;;;5.47;63.15;100174.36;2115335;83;31020;-66
2022/04/20 06:02:13;;;;;;;36.90;22.45;;;;;;;5.55;63.03;100169.70;2115349;84;32973;-65
2022/04/20 06:05:23;;;;;;;37.38;23.57;;;;;;;5.66;62.99;100169.81;2115243;83;29335;-65
2022/04/20 06:08:28;;;;;;;32.90;22.52;;;;;;;5.76;62.81;100160.17;2115386;84;27881;-64
2022/04/20 06:11:34;;;;;;;36.80;23.10;;;;;;;5.90;62.74;100161.06;2115252;83;28732;-64
2022/04/20 06:14:38;;;;;;;;;;;;;;;6.03;62.75;100159.36;2117120;83;31027;-63
2022/04/20 06:17:43;;;;;;;31.68;20.00;;;;;;;6.18;62.62;100156.18;2113435;83;32961;-64
2022/04/20 06:20:48;;;;;;;34.67;21.80;;;;;;;6.30;62.29;100159.34;2114472;83;29334;-65
2022/04/20 06:23:52;;;;;;;32.67;20.45;;;;;;;6.42;62.19;100156.72;2115408;83;27977;-65
2022/04/20 06:26:57;;;;;;;33.98;19.67;;;;;;;6.54;62.09;100156.28;2115249;83;28649;-66
2022/04/20 06:30:03;;;;;;;27.58;18.65;;;;;;;6.69;62.19;100150.88;2115206;83;31029;-65
2022/04/20 06:33:09;;;;;;;33.95;19.75;;;;;;;6.84;61.73;100146.33;2114888;83;33062;-65
2022/04/20 06:36:18;;;;;;;30.65;19.25;;;;;;;6.94;61.42;100146.02;2114097;84;29410;-67
2022/04/20 06:39:25;;;;;;;28.17;18.20;;;;;;;6.99;61.24;100144.91;2114169;83;27984;-65
2022/04/20 06:42:29;;;;;;;26.77;17.85;;;;;;;7.07;61.11;100142.41;2114840;83;28636;-65
2022/04/20 06:45:33;;;;;;;30.70;18.75;;;;;;;7.13;60.92;100143.03;2114841;83;31072;-64
2022/04/20 06:48:39;;;;;;;21.02;14.28;;;;;;;7.17;60.73;100144.26;2115177;83;33114;-65
2022/04/20 06:58:41;;;;;;;30.35;20.37;;;;;;;7.39;60.45;100135.85;2118621;83;27951;-64
2022/04/20 07:01:53;;;;;;;34.98;19.32;;;;;;;7.51;60.37;100129.63;2118399;83;31058;-65
2022/04/20 07:05:05;;;;;;;29.02;18.70;;;;;;;7.56;60.17;100116.51;2118459;83;29417;-65
2022/04/20 07:08:10;;;;;;;29.63;18.95;;;;;;;7.58;59.86;100125.31;2118732;83;29568;-64
2022/04/20 07:11:15;;;;;;;;;;;;;;;7.62;59.59;100123.38;2121473;83;27877;-65
2022/04/20 07:14:20;;;;;;;29.15;17.42;;;;;;;7.66;59.53;100124.16;2118806;83;28644;-65
2022/04/20 07:17:25;;;;;;;25.77;18.07;;;;;;;7.68;59.53;100121.81;2118815;83;31003;-64
2022/04/20 07:20:30;;;;;;;26.07;18.42;;;;;;;7.75;59.53;100119.77;2118957;83;32969;-67
2022/04/20 07:23:35;;;;;;;28.57;18.30;;;;;;;7.81;59.33;100111.97;2119149;83;29358;-65
2022/04/20 07:26:39;;;;;;;28.55;17.82;;;;;;;7.88;59.17;100114.32;2118954;83;27914;-64
2022/04/20 07:29:45;;;;;;;27.87;18.82;;;;;;;7.96;59.14;100103.81;2119252;83;28631;-64
2022/04/20 07:32:53;;;;;;;25.90;18.30;;;;;;;8.08;58.89;100107.77;2118402;83;31070;-64
2022/04/20 07:35:58;;;;;;;26.42;18.65;;;;;;;8.13;58.61;100110.64;2118743;83;32990;-64
2022/04/20 07:39:03;;;;;;;26.05;18.92;;;;;;;8.18;58.48;100108.65;2118879;83;29337;-65
2022/04/20 07:42:09;;;;;;;28.80;18.47;;;;;;;8.25;58.39;100109.25;2119103;83;27934;-64
2022/04/20 07:45:13;;;;;;;25.68;17.67;;;;;;;8.22;58.12;100088.03;2118679;83;28638;-64
2022/04/20 07:48:20;;;;;;;26.00;18.10;;;;;;;8.29;57.94;100095.30;2118869;83;31062;-65
2022/04/20 07:51:31;;;;;;;24.87;17.55;;;;;;;8.34;57.99;100091.97;2118547;83;32995;-64
2022/04/20 07:54:38;;;;;;;28.75;18.65;;;;;;;8.42;57.84;100094.30;2115463;83;28090;-64
2022/04/20 07:57:47;;;;;;;27.07;17.52;;;;;;;8.51;57.55;100090.80;2115228;83;27885;-65
2022/04/20 08:00:53;;;;;;;30.30;18.27;;;;;;;8.63;57.66;100095.17;2114408;83;27912;-65
2022/04/20 08:04:03;;;;;;;25.72;17.77;;;;;;;8.78;57.69;100091.81;2115013;84;31122;-65
2022/04/20 08:07:11;;;;;;;24.92;17.80;;;;;;;8.89;57.23;100096.66;2115296;83;32961;-65
2022/04/20 08:10:17;;;;;;;31.23;18.73;;;;;;;8.98;57.00;100091.37;2115214;83;29331;-64
2022/04/20 08:16:52;;;;;;;27.15;18.00;;;;;;;9.19;56.72;100089.94;2114927;83;29918;-63
2022/04/20 08:19:58;;;;;;;28.87;17.45;;;;;;;9.42;56.66;100090.20;2115127;83;31087;-64
2022/04/20 08:23:03;;;;;;;24.57;17.80;;;;;;;9.67;56.49;100087.20;2114986;83;32957;-65
2022/04/20 08:26:09;;;;;;;26.85;18.40;;;;;;;9.91;56.11;100077.53;2115165;83;29326;-66
2022/04/20 08:29:15;;;;;;;27.98;16.82;;;;;;;10.12;55.76;100086.27;2115121;83;27929;-66
2022/04/20 08:32:19;;;;;;;23.77;15.10;;;;;;;10.32;55.77;100081.25;2114525;83;28632;-67
2022/04/20 08:35:25;;;;;;;24.63;16.63;;;;;;;10.55;55.12;100077.84;2115414;83;31013;-69
2022/04/20 08:38:32;;;;;;;24.70;14.93;;;;;;;10.74;55.06;100079.54;2114955;83;32969;-65
2022/04/20 08:41:37;;;;;;;25.48;15.32;;;;;;;10.97;55.37;100070.23;2114914;83;29336;-65
2022/04/20 08:44:48;;;;;;;20.90;15.28;;;;;;;11.10;54.74;100078.48;2114873;83;27920;-65
2022/04/20 08:47:53;;;;;;;21.20;15.20;;;;;;;11.13;55.13;100076.09;2114622;83;28648;-66
2022/04/20 08:51:01;;;;;;;19.17;14.30;;;;;;;11.17;55.13;100068.27;2114836;83;31042;-65
2022/04/20 08:54:06;;;;;;;20.48;13.85;;;;;;;11.10;55.01;100074.45;2114273;83;33010;-65
2022/04/20 08:57:17;;;;;;;20.93;14.27;;;;;;;11.02;55.29;100070.86;2113751;84;29383;-65
2022/04/20 09:00:27;;;;;;;19.70;13.65;;;;;;;10.92;55.34;100069.16;2113986;83;27949;-64
2022/04/20 09:03:34;;;;;;;18.32;12.70;;;;;;;10.78;55.73;100068.56;2113543;83;28708;-64
2022/04/20 09:06:45;;;;;;;21.23;13.03;;;;;;;10.75;56.37;100066.53;2114363;83;31103;-65
2022/04/20 09:09:51;;;;;;;19.75;12.85;;;;;;;10.64;56.29;100066.65;2115045;83;33047;-65
2022/04/20 09:13:11;;;;;;;21.62;14.33;;;;;;;10.59;56.61;100070.53;2115109;83;29320;-66
2022/04/20 09:16:16;;;;;;;20.60;14.68;;;;;;;10.56;56.51;100064.84;2115283;83;27752;-65
2022/04/20 09:19:24;;;;;;;19.87;13.90;;;;;;;10.52;56.58;100059.73;2115526;83;29427;-66
2022/04/20 09:22:30;;;;;;;18.62;12.73;;;;;;;10.46;56.87;100055.09;2114960;83;31024;-63
2022/04/20 09:25:50;;;;;;;18.77;12.88;;;;;;;10.50;57.41;100050.45;2115012;83;32847;-65
2022/04/20 09:29:10;;;;;;;15.15;12.25;;;;;;;10.57;57.33;100049.66;2115012;84;30024;-65
2022/04/20 09:32:38;;;;;;;17.70;13.65;;;;;;;10.69;57.81;100042.28;2115474;83;27968;-65
2022/04/20 09:35:52;;;;;;;18.10;13.85;;;;;;;10.72;57.55;100039.45;2114997;83;27905;-64
2022/04/20 09:39:04;;;;;;;20.88;13.90;;;;;;;10.72;57.80;100035.42;2115366;83;31642;-64
2022/04/20 09:42:15;;;;;;;19.42;13.83;;;;;;;10.71;57.92;100031.47;2114869;83;33185;-65
2022/04/20 09:45:24;;;;;;;19.85;12.95;;;;;;;10.68;58.08;100027.16;2115301;83;29323;-65
2022/04/20 09:51:57;;;;;;;16.23;11.53;;;;;;;10.71;58.46;100023.43;2114995;83;28726;-66
2022/04/20 09:55:10;;;;;;;15.65;11.45;;;;;;;10.69;58.40;100014.16;2070840;83;31064;-66
2022/04/20 09:58:21;;;;;;;18.17;11.78;;;;;;;10.61;58.62;100008.33;2117504;83;33526;-65
2022/04/20 10:01:36;;;;;;;15.05;11.03;;;;;;;10.51;58.63;100013.81;2118218;83;29344;-64
2022/04/20 10:04:47;;;;;;;15.60;11.05;;;;;;;10.40;58.85;100013.93;2118214;83;27853;-64
2022/04/20 10:07:54;;;;;;;15.45;11.00;;;;;;;10.34;59.04;100018.23;2117686;83;28848;-66
2022/04/20 10:10:59;;;;;;;15.03;11.22;;;;;;;10.30;59.00;100014.86;2118172;83;31017;-64
2022/04/20 10:17:33;;;;;;;15.05;11.57;;;;;;;10.20;59.59;100008.23;2117743;83;27877;-65
2022/04/20 10:20:46;;;;;;;14.35;11.53;;;;;;;10.10;59.88;100007.86;2118210;83;27947;-64
2022/04/20 10:23:51;;;;;;;14.07;11.57;;;;;;;10.09;59.93;100009.29;2118189;83;28638;-65
2022/04/20 10:26:58;;;;;;;19.85;12.45;;;;;;;9.98;60.04;100005.83;2118007;83;31011;-65
2022/04/20 10:30:08;;;;;;;21.37;13.80;;;;;;;9.87;60.23;100009.05;2096008;83;32831;-65
2022/04/20 10:33:19;;;;;;;19.37;12.78;;;;;;;9.74;60.63;100006.17;2117764;83;29485;-65
2022/04/20 10:36:33;;;;;;;18.02;11.93;;;;;;;9.72;61.25;99996.02;2118203;83;27892;-64
2022/04/20 10:39:40;;;;;;;15.45;11.25;;;;;;;9.68;61.19;99993.95;2118035;83;28563;-64
2022/04/20 10:43:02;;;;;;;16.05;12.58;;;;;;;9.67;61.48;99986.89;2117730;83;31459;-64
2022/04/20 10:46:20;;;;;;;17.65;12.60;;;;;;;9.64;62.06;99992.84;2115446;83;33485;-66
2022/04/20 10:49:26;;;;;;;14.35;10.55;;;;;;;9.64;62.22;99987.50;2116793;83;29348;-65
2022/04/20 10:52:37;;;;;;;15.93;9.73;;;;;;;9.65;62.34;99994.58;2086119;83;28042;-66
2022/04/20 10:55:52;;;;;;;12.82;9.18;;;;;;;9.70;62.40;99981.36;2116424;83;28696;-65
2022/04/20 10:59:13;;;;;;;17.80;12.85;;;;;;;9.75;62.51;99984.28;2116410;83;31093;-65
2022/04/20 11:02:20;;;;;;;13.50;10.95;;;;;;;9.76;62.55;99982.88;2116628;83;32955;-66
2022/04/20 11:05:27;;;;;;;16.20;12.53;;;;;;;9.72;62.64;99977.29;2092061;83;29388;-66
2022/04/20 11:08:31;;;;;;;14.53;10.98;;;;;;;9.68;62.59;99973.88;2116952;83;27849;-65
2022/04/20 11:19:10;;;;;;;13.00;11.00;;;;;;;9.83;63.21;99977.59;2116452;83;33377;-65
2022/04/20 11:22:15;;;;;;;9.35;7.85;;;;;;;9.79;62.88;99976.50;2108097;83;29427;-67
2022/04/20 11:25:20;;;;;;;9.80;6.20;;;;;;;9.68;63.11;99976.55;2115559;83;27960;-64
2022/04/20 11:28:24;;;;;;;;;;;;;;;9.56;63.01;99971.39;2117804;83;28639;-66
2022/04/20 11:31:40;;;;;;;9.03;6.62;;;;;;;9.53;63.52;99974.66;2115073;83;31039;-65
2022/04/20 11:34:47;;;;;;;8.45;6.25;;;;;;;9.49;63.57;99977.98;2114900;83;34895;-66
2022/04/20 11:37:59;;;;;;;7.22;6.00;;;;;;;9.47;63.64;99975.84;2115358;83;29336;-65
2022/04/20 11:41:07;;;;;;;11.65;9.08;;;;;;;9.51;64.01;99967.22;2115402;83;27968;-65
2022/04/20 11:44:27;;;;;;;13.25;9.55;;;;;;;9.52;63.97;99972.93;2115285;83;28653;-65
2022/04/20 11:47:46;;;;;;;9.60;6.45;;;;;;;9.43;63.99;99964.94;2114247;83;31009;-66
2022/04/20 11:50:57;;;;;;;12.63;8.55;;;;;;;9.38;64.02;99967.81;2113521;83;33144;-66
2022/04/20 11:54:06;;;;;;;16.42;8.50;;;;;;;9.27;64.08;99963.00;2114741;83;29967;-66
2022/04/20 11:57:12;;;;;;;11.10;8.25;;;;;;;9.12;64.08;99969.11;2112185;83;27748;-66
2022/04/20 12:00:23;;;;;;;8.18;5.75;;;;;;;9.11;64.58;99974.05;2112371;83;28654;-66
2022/04/20 12:03:37;;;;;;;7.35;5.78;;;;;;;9.10;64.50;99968.34;2112156;84;31008;-65
2022/04/20 12:06:55;;;;;;;3.95;3.27;;;;;;;9.15;64.59;99972.97;2112035;83;32983;-66
2022/04/20 12:10:03;;;;;;;5.15;3.72;;;;;;;9.06;63.95;99970.27;2112137;84;29359;-65
2022/04/20 12:13:09;;;;;;;6.47;5.17;;;;;;;9.02;64.35;99971.36;2112461;83;27991;-66
2022/04/20 12:16:14;;;;;;;8.63;6.50;;;;;;;9.03;64.71;99968.23;2091979;84;28647;-66
2022/04/20 12:19:20;;;;;;;16.17;10.98;;;;;;;8.99;64.62;99963.52;2112413;83;31081;-67
2022/04/20 12:22:26;;;;;;;28.47;16.35;;;;;;;8.93;64.72;99967.36;2112165;83;33036;-65
2022/04/20 12:25:33;;;;;;;15.18;9.80;;;;;;;8.87;64.92;99966.30;2092623;84;29379;-65
2022/04/20 12:28:45;;;;;;;12.35;10.18;;;;;;;8.85;65.12;99958.83;2091903;84;27951;-65
2022/04/20 12:31:54;;;;;;;10.93;9.23;;;;;;;8.90;65.29;99962.61;2113624;84;28646;-65
2022/04/20 12:35:04;;;;;;;15.98;11.80;;;;;;;8.96;65.37;99965.84;2112338;83;31040;-66
2022/04/20 12:38:21;;;;;;;18.37;12.85;;;;;;;8.99;65.41;99965.30;2111972;83;33721;-65
2022/04/20 12:41:54;;;;;;;12.07;8.95;;;;;;;8.94;64.98;99970.87;2109633;83;29488;-65
2022/04/20 12:45:06;;;;;;;12.15;9.10;;;;;;;8.88;65.03;99967.16;2111893;83;27947;-65
2022/04/20 12:48:18;;;;;;;14.98;11.97;;;;;;;8.83;65.25;99972.73;2111748;83;28906;-65
2022/04/20 12:51:29;;;;;;;8.93;7.47;;;;;;;8.81;65.39;99967.92;2111706;84;31014;-64
2022/04/20 12:54:35;;;;;;;8.35;6.17;;;;;;;8.85;65.56;99961.98;2112480;83;32972;-62
2022/04/20 13:04:59;;;;;;;7.30;5.12;;;;;;;8.92;65.78;99958.94;2117197;83;29013;-62
2022/04/20 13:08:06;;;;;;;7.92;5.45;;;;;;;8.91;65.70;99965.22;2116794;83;31504;-63
2022/04/20 13:11:16;;;;;;;9.05;5.00;;;;;;;8.92;65.87;99964.73;2117334;83;32980;-62
2022/04/20 13:14:23;;;;;;;8.90;5.22;;;;;;;8.90;65.96;99959.48;2117355;83;29326;-64
2022/04/20 13:17:28;;;;;;;8.50;6.08;;;;;;;8.84;65.86;99961.10;2117316;83;27934;-62
2022/04/20 13:20:32;;;;;;;11.78;8.80;;;;;;;8.79;65.88;99968.01;2117494;83;28650;-64
2022/04/20 13:23:39;;;;;;;7.75;6.67;;;;;;;8.76;66.04;99971.30;2117156;83;31087;-62
2022/04/20 13:30:15;;;;;;;15.80;8.68;;;;;;;8.75;66.49;99967.75;2116918;83;30517;-62
2022/04/20 13:33:22;;;;;;;15.35;9.65;;;;;;;8.79;66.58;99967.12;2117089;83;27990;-62
2022/04/20 13:36:26;;;;;;;17.37;9.93;;;;;;;8.76;66.46;99964.63;2117481;83;28648;-60
2022/04/20 13:39:32;;;;;;;7.53;5.85;;;;;;;8.72;66.35;99967.89;2117158;83;31028;-61
2022/04/20 13:42:38;;;;;;;11.65;9.23;;;;;;;8.66;66.45;99969.53;2117249;83;33505;-61
2022/04/20 13:45:43;;;;;;;59.90;36.53;;;;;;;8.64;66.80;99972.74;2117050;83;29401;-61
2022/04/20 13:48:49;;;;;;;16.45;11.43;;;;;;;8.63;66.79;99970.52;2117534;83;27964;-61
2022/04/20 13:51:52;;;;;;;14.35;9.73;;;;;;;8.64;66.89;99978.08;2117256;83;28675;-63
2022/04/20 13:54:57;;;;;;;13.32;8.08;;;;;;;8.62;66.94;99975.47;2116720;83;31040;-61
2022/04/20 13:58:02;;;;;;;18.12;14.78;;;;;;;8.61;67.00;99974.22;2114172;83;33688;-61
2022/04/20 14:01:11;;;;;;;10.65;7.47;;;;;;;8.63;67.06;99980.35;2117004;83;29370;-64
2022/04/20 14:04:17;;;;;;;11.43;9.25;;;;;;;8.61;66.99;99987.56;2103960;84;27867;-65
2022/04/20 14:07:24;;;;;;;10.03;6.87;;;;;;;8.58;67.07;99987.25;2114147;84;28631;-63
2022/04/20 14:10:28;;;;;;;9.28;7.95;;;;;;;8.58;67.04;99981.91;2114050;83;31182;-61
2022/04/20 14:13:30;;;;;;;9.70;6.10;;;;;;;8.59;67.16;99978.30;2114166;84;33056;-61
2022/04/20 14:16:41;;;;;;;7.37;5.28;;;;;;;8.63;67.40;99969.67;2114339;83;29305;-62
2022/04/20 14:19:44;;;;;;;6.35;5.45;;;;;;;8.71;67.46;99976.84;2113025;83;27918;-61
2022/04/20 14:22:49;;;;;;;9.38;5.87;;;;;;;8.81;67.44;99972.81;2113861;84;28652;-63
2022/04/20 14:32:53;;;;;;;7.05;5.80;;;;;;;9.14;67.35;99973.91;2113738;83;30598;-62
2022/04/20 14:36:07;;;;;;;13.45;8.38;;;;;;;9.25;67.33;99968.03;2114233;84;27932;-61
2022/04/20 14:39:17;;;;;;;12.85;7.83;;;;;;;9.30;67.07;99962.45;2113069;83;27916;-63
2022/04/20 14:42:21;;;;;;;11.18;7.10;;;;;;;9.35;66.94;99969.30;2113998;83;30975;-62
2022/04/20 14:45:27;;;;;;;11.10;6.28;;;;;;;9.45;67.11;99971.05;2113963;83;32960;-65
2022/04/20 14:48:36;;;;;;;9.03;6.28;;;;;;;9.50;66.74;99972.17;2114466;83;29324;-61
2022/04/20 14:51:43;;;;;;;10.30;7.15;;;;;;;9.51;66.67;99973.91;2114657;83;27971;-63
2022/04/20 14:54:51;;;;;;;15.15;9.38;;;;;;;9.50;66.45;99970.84;2114498;83;28902;-62
2022/04/20 14:58:03;;;;;;;11.55;7.35;;;;;;;9.50;66.51;99974.84;2114174;83;31016;-61
2022/04/20 15:01:14;;;;;;;8.83;5.85;;;;;;;9.55;66.55;99970.11;2115272;84;33832;-61
2022/04/20 15:04:24;;;;;;;10.32;8.35;;;;;;;9.55;66.47;99972.78;2114423;83;29337;-62
2022/04/20 15:07:27;;;;;;;10.75;8.48;;;;;;;9.52;66.30;99974.27;2114446;83;27923;-62
2022/04/20 15:10:34;;;;;;;10.63;5.67;;;;;;;9.50;66.43;99979.70;2114661;83;28746;-64
2022/04/20 15:13:45;;;;;;;8.85;5.40;;;;;;;9.45;66.06;99977.73;2114450;83;31012;-64
2022/04/20 15:16:50;;;;;;;11.73;10.53;;;;;;;9.38;66.13;99975.84;2111216;83;30535;-62
2022/04/20 15:19:56;;;;;;;10.40;8.97;;;;;;;9.33;66.15;99977.89;2111671;84;29347;-62
2022/04/20 15:23:00;;;;;;;7.00;5.40;;;;;;;9.26;66.25;99980.02;2111726;83;27980;-63